Time;durP1;ratioP1;P1;durP2;ratioP2;P2;SDS_P1;SDS_P2;PMS_P1;PMS_P2;Temp;Humidity;BMP_temperature;BMP_pressure;BME280_temperature;BME280_humidity;BME280_pressure;Samples;Min_cycle;Max_cycle;Signal;HPM_P1;HPM_P2
2022/12/17 13:08:24;;;;;;;51.83;24.73;;;-2.60;99.90;;;;;;4997422;28;20416;-73
2022/12/17 13:10:51;;;;;;;47.90;21.83;;;-2.70;99.90;;;;;;5010959;28;20508;-74
2022/12/17 13:13:17;;;;;;;55.23;24.87;;;-2.80;99.90;;;;;;5001678;28;20414;-73
2022/12/17 13:15:48;;;;;;;45.23;23.80;;;-2.70;99.90;;;;;;5008631;28;20457;-74
2022/12/17 13:18:27;;;;;;;44.17;24.10;;;-2.70;99.90;;;;;;5010863;28;20696;-73
2022/12/17 13:21:16;;;;;;;57.77;26.07;;;-2.60;99.90;;;;;;5012273;28;20421;-74
2022/12/17 13:23:42;;;;;;;50.57;24.87;;;-2.60;99.90;;;;;;4999496;28;20854;-73
2022/12/17 13:26:42;;;;;;;55.07;26.60;;;-2.60;99.90;;;;;;5012585;28;20385;-72
2022/12/17 13:29:25;;;;;;;54.87;26.80;;;-2.40;99.90;;;;;;5011934;28;20385;-72
2022/12/17 13:32:00;;;;;;;59.70;27.20;;;-2.40;99.90;;;;;;5011907;28;20450;-73
2022/12/17 13:34:33;;;;;;;61.03;25.53;;;-2.50;99.90;;;;;;5012402;28;20535;-73
2022/12/17 13:37:24;;;;;;;56.57;27.97;;;-2.60;99.90;;;;;;5012442;28;20421;-73
2022/12/17 13:40:08;;;;;;;50.63;24.27;;;-2.60;99.90;;;;;;5012684;28;20779;-73
2022/12/17 13:42:35;;;;;;;54.13;25.77;;;-2.60;99.90;;;;;;5012163;28;20425;-73
2022/12/17 13:45:01;;;;;;;55.40;29.40;;;-2.60;99.90;;;;;;5012649;28;20425;-73
2022/12/17 13:47:30;;;;;;;67.50;30.00;;;-2.70;99.90;;;;;;5012346;28;20426;-72
2022/12/17 13:49:58;;;;;;;58.93;27.47;;;-2.70;99.90;;;;;;5012447;28;20467;-73
2022/12/17 13:52:26;;;;;;;50.23;24.67;;;-2.70;99.90;;;;;;5011183;28;20432;-72
2022/12/17 13:54:52;;;;;;;49.13;24.50;;;-2.70;99.90;;;;;;5011716;28;20443;-73
2022/12/17 13:57:23;;;;;;;63.13;30.03;;;-2.60;99.90;;;;;;5012050;28;20418;-74
2022/12/17 13:59:54;;;;;;;67.60;27.93;;;-2.60;99.90;;;;;;5011665;28;20389;-72
2022/12/17 14:02:26;;;;;;;59.07;27.40;;;-2.70;99.90;;;;;;5011261;28;20989;-71
2022/12/17 14:04:54;;;;;;;61.03;28.23;;;-2.80;99.90;;;;;;5012055;28;20436;-70
2022/12/17 14:07:20;;;;;;;53.67;26.13;;;-2.80;99.90;;;;;;5011969;28;20450;-71
2022/12/17 14:09:47;;;;;;;53.63;26.17;;;-2.90;99.90;;;;;;5011428;28;20399;-70
2022/12/17 14:12:22;;;;;;;65.50;26.77;;;-3.00;99.90;;;;;;5011082;28;20432;-71
2022/12/17 14:14:53;;;;;;;62.90;27.40;;;-3.00;99.90;;;;;;5011622;28;20423;-72
2022/12/17 14:17:22;;;;;;;54.93;26.17;;;-3.00;99.90;;;;;;5011450;28;20442;-73
2022/12/17 14:19:57;;;;;;;58.80;27.90;;;-3.00;99.90;;;;;;5006569;28;20450;-72
2022/12/17 14:22:31;;;;;;;62.70;29.10;;;-3.10;99.90;;;;;;4997779;28;20488;-73
2022/12/17 14:24:56;;;;;;;62.07;28.07;;;-3.10;99.90;;;;;;4999603;28;20444;-73
2022/12/17 14:27:33;;;;;;;67.43;33.50;;;-3.20;99.90;;;;;;5010983;28;20426;-72
2022/12/17 14:30:00;;;;;;;54.20;28.23;;;-3.20;99.90;;;;;;5006200;28;20233;-72
2022/12/17 14:32:32;;;;;;;60.07;30.77;;;-3.30;99.90;;;;;;5002733;28;20523;-73
2022/12/17 14:34:58;;;;;;;52.93;25.57;;;-3.30;99.90;;;;;;5007513;28;20455;-72
2022/12/17 14:37:25;;;;;;;67.93;27.87;;;-3.40;99.90;;;;;;5010597;28;20445;-73
2022/12/17 14:39:57;;;;;;;56.93;28.67;;;-3.40;99.90;;;;;;5009528;28;20302;-73
2022/12/17 14:42:24;;;;;;;53.77;27.90;;;-3.40;99.90;;;;;;5009930;28;20458;-73
2022/12/17 14:45:13;;;;;;;50.40;28.27;;;-3.40;99.90;;;;;;5010326;28;20820;-73
2022/12/17 14:47:38;;;;;;;50.27;27.03;;;-3.40;99.90;;;;;;4999256;28;20439;-72
2022/12/17 14:50:08;;;;;;;67.53;31.50;;;-3.40;99.90;;;;;;5010053;28;20428;-73
2022/12/17 14:52:39;;;;;;;60.93;26.70;;;-3.50;99.90;;;;;;5009694;28;20634;-74
2022/12/17 14:55:33;;;;;;;58.30;26.93;;;-3.40;99.90;;;;;;5008841;28;20504;-72
2022/12/17 14:58:10;;;;;;;54.43;27.37;;;-3.50;99.90;;;;;;5010461;28;20464;-73
2022/12/17 15:00:45;;;;;;;53.13;26.83;;;-3.50;99.90;;;;;;5009510;28;20443;-73
2022/12/17 15:03:19;;;;;;;64.27;29.97;;;-3.60;99.90;;;;;;5009720;28;20441;-72
2022/12/17 15:05:53;;;;;;;55.40;25.00;;;-3.60;99.90;;;;;;5009789;28;20460;-72
2022/12/17 15:08:20;;;;;;;51.70;25.77;;;-3.70;99.90;;;;;;5009230;28;20433;-71
2022/12/17 15:10:45;;;;;;;58.57;28.43;;;-3.70;99.90;;;;;;5009154;28;20481;-74
2022/12/17 15:13:11;;;;;;;57.10;28.93;;;-3.60;99.90;;;;;;5009446;28;20540;-73
2022/12/17 15:15:36;;;;;;;59.47;28.00;;;-3.70;99.90;;;;;;5009363;28;20228;-73
2022/12/17 15:18:02;;;;;;;63.87;30.07;;;-3.90;99.90;;;;;;5009714;28;20214;-72
2022/12/17 15:20:27;;;;;;;56.70;31.17;;;-3.90;99.90;;;;;;5009279;28;20592;-73
2022/12/17 15:22:53;;;;;;;70.30;29.90;;;-4.00;99.90;;;;;;5009083;28;20230;-73
2022/12/17 15:25:19;;;;;;;55.43;29.83;;;-4.00;99.90;;;;;;5009286;28;20236;-73
2022/12/17 15:27:45;;;;;;;53.33;29.30;;;-4.10;99.90;;;;;;5010381;28;20214;-74
2022/12/17 15:30:15;;;;;;;63.00;28.27;;;-4.10;99.90;;;;;;5009142;28;20213;-72
2022/12/17 15:32:41;;;;;;;61.87;27.57;;;-4.10;99.90;;;;;;5009049;28;20570;-73
2022/12/17 15:35:07;;;;;;;59.80;27.90;;;-4.20;99.90;;;;;;5000987;28;20902;-73
2022/12/17 15:37:33;;;;;;;48.20;25.80;;;-4.20;99.90;;;;;;5004070;28;20249;-74
2022/12/17 15:39:58;;;;;;;59.10;28.17;;;-4.30;99.90;;;;;;5008844;28;20843;-73
2022/12/17 15:45:09;;;;;;;55.53;28.27;;;-4.40;99.90;;;;;;5009603;28;20345;-71
2022/12/17 15:47:35;;;;;;;58.10;28.13;;;-4.50;99.90;;;;;;5009465;28;20534;-72
2022/12/17 15:50:01;;;;;;;59.93;26.63;;;-4.50;99.90;;;;;;5009352;28;20223;-73
2022/12/17 15:52:27;;;;;;;49.53;25.70;;;-4.60;99.90;;;;;;5008219;28;20199;-74
2022/12/17 15:54:52;;;;;;;57.70;25.73;;;-4.70;99.90;;;;;;5009583;28;20465;-75
2022/12/17 15:57:18;;;;;;;49.87;24.40;;;-4.80;99.90;;;;;;5008897;28;20218;-73
2022/12/17 15:59:43;;;;;;;53.97;25.00;;;-4.90;99.90;;;;;;5010675;28;20250;-74
2022/12/17 16:02:10;;;;;;;56.27;25.67;;;-5.00;99.90;;;;;;5003001;28;20275;-74
2022/12/17 16:04:36;;;;;;;65.00;26.37;;;-5.10;99.90;;;;;;4998410;28;20221;-74
2022/12/17 16:07:03;;;;;;;64.10;27.90;;;-5.20;99.90;;;;;;5000043;28;20466;-72
2022/12/17 16:09:28;;;;;;;60.87;26.23;;;-5.30;99.90;;;;;;5004914;28;20458;-72
2022/12/17 16:11:54;;;;;;;56.83;27.60;;;-5.40;99.90;;;;;;5000503;28;20784;-71
2022/12/17 16:14:21;;;;;;;54.40;24.77;;;-5.40;99.90;;;;;;5004008;28;20220;-72
2022/12/17 16:16:46;;;;;;;45.33;24.20;;;-5.50;99.90;;;;;;5006059;28;20450;-72
2022/12/17 16:19:12;;;;;;;55.20;24.50;;;-5.60;99.90;;;;;;5013234;28;20424;-71
2022/12/17 16:21:37;;;;;;;76.30;28.27;;;-5.60;99.90;;;;;;5007177;28;20278;-72
2022/12/17 16:24:04;;;;;;;89.17;37.10;;;-5.60;99.90;;;;;;5010158;28;20731;-72
2022/12/17 16:26:30;;;;;;;108.83;45.13;;;-5.70;99.90;;;;;;5012845;28;20277;-71
2022/12/17 16:28:56;;;;;;;102.00;41.03;;;-5.70;99.90;;;;;;5013310;28;20450;-73
2022/12/17 16:31:22;;;;;;;74.57;34.07;;;-5.80;99.90;;;;;;5011733;28;20993;-75
2022/12/17 16:33:47;;;;;;;79.87;36.50;;;-5.80;99.90;;;;;;5013232;28;20451;-73
2022/12/17 16:36:17;;;;;;;73.07;33.77;;;-5.80;99.90;;;;;;4994954;28;20228;-73
2022/12/17 16:38:45;;;;;;;69.53;31.50;;;-5.80;99.90;;;;;;5002764;28;20225;-73
2022/12/17 16:41:11;;;;;;;87.03;34.90;;;-5.80;99.90;;;;;;5009831;28;20421;-74
2022/12/17 16:43:37;;;;;;;86.83;34.37;;;-5.80;99.90;;;;;;5010801;28;20408;-74
2022/12/17 16:46:02;;;;;;;72.50;32.63;;;-5.80;99.90;;;;;;5012501;28;20444;-73
2022/12/17 16:48:28;;;;;;;69.30;30.40;;;-5.90;99.90;;;;;;5012695;28;20215;-74
2022/12/17 16:50:53;;;;;;;67.80;31.50;;;-5.90;99.90;;;;;;5011920;28;20634;-75
2022/12/17 16:53:19;;;;;;;65.60;29.87;;;-5.90;99.90;;;;;;5005389;28;20191;-75
2022/12/17 16:55:47;;;;;;;67.00;33.60;;;-5.90;99.90;;;;;;4993299;28;20229;-75
2022/12/17 16:58:14;;;;;;;66.30;31.63;;;-6.00;99.90;;;;;;4994191;28;20178;-75
2022/12/17 17:00:40;;;;;;;75.57;33.00;;;-6.00;99.90;;;;;;4997029;28;20472;-75
2022/12/17 17:03:06;;;;;;;66.93;29.47;;;-6.00;99.90;;;;;;5000579;28;20915;-75
2022/12/17 17:05:34;;;;;;;61.60;31.73;;;-6.00;99.90;;;;;;4993479;28;20916;-75
2022/12/17 17:08:00;;;;;;;66.30;29.53;;;-6.10;99.90;;;;;;4993759;28;20404;-75
2022/12/17 17:10:26;;;;;;;69.70;30.90;;;-6.10;99.90;;;;;;4999075;28;20424;-76
2022/12/17 17:12:51;;;;;;;62.90;31.63;;;-6.10;99.90;;;;;;4992337;28;20211;-75
2022/12/17 17:15:18;;;;;;;69.60;32.60;;;-6.10;99.90;;;;;;4993599;28;20489;-75
2022/12/17 17:17:43;;;;;;;70.90;31.60;;;-6.10;99.90;;;;;;4993178;28;20404;-75
2022/12/17 17:20:10;;;;;;;66.30;33.93;;;-6.20;99.90;;;;;;4993300;28;20930;-75
2022/12/17 17:22:35;;;;;;;121.73;43.30;;;-6.10;99.90;;;;;;4992398;28;20275;-75
2022/12/17 17:25:01;;;;;;;188.10;70.50;;;-6.10;99.90;;;;;;4993341;28;21046;-75
2022/12/17 17:27:26;;;;;;;107.07;44.10;;;-6.00;99.90;;;;;;4992709;28;20255;-76
2022/12/17 17:29:52;;;;;;;74.70;36.40;;;-6.00;99.90;;;;;;4991984;28;20517;-75
2022/12/17 17:32:17;;;;;;;71.10;33.10;;;-6.00;99.90;;;;;;4992922;28;20568;-75
2022/12/17 17:34:43;;;;;;;76.23;35.20;;;-6.10;99.90;;;;;;4992595;28;20196;-75
2022/12/17 17:37:09;;;;;;;85.27;34.57;;;-6.20;99.90;;;;;;4992744;28;20178;-76
2022/12/17 17:39:34;;;;;;;70.97;29.87;;;-6.20;99.90;;;;;;4992747;28;20171;-76
2022/12/17 17:42:00;;;;;;;62.77;31.77;;;-6.30;99.90;;;;;;4992262;28;20436;-75
2022/12/17 17:44:25;;;;;;;74.23;32.93;;;-6.30;99.90;;;;;;4991337;28;20191;-73
2022/12/17 17:46:51;;;;;;;77.97;33.60;;;-6.30;99.90;;;;;;4992510;28;20183;-74
2022/12/17 17:49:17;;;;;;;66.93;33.07;;;-6.30;99.90;;;;;;4992805;28;20266;-76
2022/12/17 17:51:43;;;;;;;71.20;35.60;;;-6.30;99.90;;;;;;4992013;28;20311;-74
2022/12/17 17:54:09;;;;;;;78.00;33.97;;;-6.30;99.90;;;;;;4992491;28;20571;-74
2022/12/17 17:56:38;;;;;;;75.73;34.43;;;-6.30;99.90;;;;;;4992727;28;20446;-75
2022/12/17 17:59:06;;;;;;;80.67;35.50;;;-6.20;99.90;;;;;;4992514;28;20816;-76
2022/12/17 18:01:35;;;;;;;81.30;35.47;;;-6.30;99.90;;;;;;4991971;28;20501;-75
2022/12/17 18:04:02;;;;;;;77.60;33.27;;;-6.30;99.90;;;;;;4992755;28;20386;-77
2022/12/17 18:06:28;;;;;;;75.17;33.23;;;-6.30;99.90;;;;;;4992492;28;20792;-76
2022/12/17 18:08:57;;;;;;;72.00;31.33;;;-6.20;99.90;;;;;;4992446;28;20398;-76
2022/12/17 18:11:27;;;;;;;64.40;28.03;;;-6.10;99.90;;;;;;4991400;28;20760;-74
2022/12/17 18:13:55;;;;;;;72.97;30.27;;;-6.10;99.90;;;;;;4992326;28;20423;-76
2022/12/17 18:16:48;;;;;;;73.03;33.50;;;-6.10;99.90;;;;;;4997133;28;20422;-77
2022/12/17 18:19:18;;;;;;;74.10;31.60;;;-6.10;99.90;;;;;;5011048;28;20400;-76
2022/12/17 18:21:44;;;;;;;69.10;29.33;;;-6.10;99.90;;;;;;5010861;28;20422;-75
2022/12/17 18:24:21;;;;;;;69.93;29.57;;;-6.10;99.90;;;;;;5011969;28;20945;-75
2022/12/17 18:26:47;;;;;;;74.80;31.30;;;-6.10;99.90;;;;;;4994176;28;20981;-76
2022/12/17 18:29:16;;;;;;;68.03;29.17;;;-6.20;99.90;;;;;;4996032;28;20407;-76
2022/12/17 18:31:41;;;;;;;79.63;34.20;;;-6.10;99.90;;;;;;5014161;28;20432;-75
2022/12/17 18:34:09;;;;;;;65.27;32.40;;;-6.20;99.90;;;;;;5013116;28;20473;-77
2022/12/17 18:36:38;;;;;;;77.33;32.30;;;-6.10;99.90;;;;;;5011489;28;20400;-77
2022/12/17 18:39:11;;;;;;;73.37;33.97;;;-6.10;99.90;;;;;;5011405;28;20564;-76
2022/12/17 18:44:22;;;;;;;77.10;32.03;;;-6.20;99.90;;;;;;5004212;28;20432;-75
2022/12/17 18:46:48;;;;;;;88.23;36.27;;;-6.30;99.90;;;;;;5002746;28;20537;-75
2022/12/17 18:49:16;;;;;;;66.27;32.17;;;-6.30;99.90;;;;;;5010147;28;20515;-76
2022/12/17 18:51:44;;;;;;;69.40;30.33;;;-6.40;99.90;;;;;;5007671;28;20460;-75
2022/12/17 18:54:15;;;;;;;85.00;33.33;;;-6.40;99.90;;;;;;5010001;28;20456;-76
2022/12/17 18:56:41;;;;;;;77.50;34.40;;;-6.50;99.90;;;;;;5006085;28;20910;-75
2022/12/17 18:59:06;;;;;;;71.70;31.83;;;-6.50;99.90;;;;;;5010156;28;20428;-77
2022/12/17 19:01:34;;;;;;;66.87;31.97;;;-6.60;99.90;;;;;;5008083;28;20837;-77
2022/12/17 19:04:05;;;;;;;67.30;29.80;;;-6.60;99.90;;;;;;4992255;28;20437;-75
2022/12/17 19:06:32;;;;;;;65.40;31.17;;;-6.70;99.90;;;;;;5009620;28;20465;-77
2022/12/17 19:08:57;;;;;;;69.13;31.47;;;-6.70;99.90;;;;;;5009743;28;20458;-76
2022/12/17 19:11:23;;;;;;;77.33;33.27;;;-6.80;99.90;;;;;;5008890;28;20441;-75
2022/12/17 19:13:49;;;;;;;76.27;33.90;;;-6.80;99.90;;;;;;5010176;28;20567;-76
2022/12/17 19:16:21;;;;;;;67.57;30.37;;;-6.90;99.90;;;;;;5009324;28;20207;-76
2022/12/17 19:18:55;;;;;;;74.27;30.40;;;-6.90;99.90;;;;;;5010049;28;20713;-75
2022/12/17 19:21:22;;;;;;;78.50;31.73;;;-7.10;99.90;;;;;;5009383;28;21335;-75
2022/12/17 19:23:48;;;;;;;66.83;31.77;;;-7.20;99.90;;;;;;5009841;28;20896;-75
2022/12/17 19:26:17;;;;;;;73.20;31.07;;;-7.20;99.90;;;;;;5009251;28;20533;-75
2022/12/17 19:28:45;;;;;;;76.77;31.53;;;-7.30;99.90;;;;;;4994455;28;20518;-76
2022/12/17 19:31:11;;;;;;;73.27;31.80;;;-7.40;99.90;;;;;;5008675;28;20485;-75
2022/12/17 19:33:37;;;;;;;71.97;29.13;;;-7.40;99.90;;;;;;5009417;28;20456;-76
2022/12/17 19:36:07;;;;;;;65.07;29.00;;;-7.50;99.90;;;;;;5008996;28;20481;-75
2022/12/17 19:38:33;;;;;;;62.83;27.90;;;-7.50;99.90;;;;;;5009577;28;20543;-75
2022/12/17 19:41:04;;;;;;;63.67;26.70;;;-7.60;99.90;;;;;;5009646;28;20921;-75
2022/12/17 19:43:30;;;;;;;63.13;28.27;;;-7.60;99.90;;;;;;5009468;28;20891;-76
2022/12/17 19:46:08;;;;;;;63.70;28.07;;;-7.70;99.90;;;;;;4991185;28;20529;-76
2022/12/17 19:48:36;;;;;;;62.70;28.30;;;-7.80;99.90;;;;;;5009645;28;20986;-76
2022/12/17 19:51:03;;;;;;;77.93;30.77;;;-7.80;99.90;;;;;;5008950;28;20421;-74
2022/12/17 19:53:30;;;;;;;65.50;27.87;;;-7.80;99.90;;;;;;4991785;28;20517;-75
2022/12/17 19:56:08;;;;;;;69.80;29.87;;;-7.80;99.90;;;;;;5009607;28;20485;-75
2022/12/17 19:58:33;;;;;;;68.33;29.73;;;-7.80;99.90;;;;;;5008902;28;20449;-75
2022/12/17 20:01:10;;;;;;;60.60;26.83;;;-7.80;99.90;;;;;;5008868;28;20495;-76
2022/12/17 20:03:37;;;;;;;56.87;26.23;;;-7.80;99.90;;;;;;5009374;28;20219;-75
2022/12/17 20:06:04;;;;;;;68.97;25.93;;;-7.80;99.90;;;;;;5008844;28;20416;-75
2022/12/17 20:08:31;;;;;;;59.50;28.00;;;-7.80;99.90;;;;;;5009199;28;20432;-75
2022/12/17 20:10:57;;;;;;;65.80;28.97;;;-7.90;99.90;;;;;;5009231;28;20461;-75
2022/12/17 20:13:23;;;;;;;61.07;27.23;;;-7.90;99.90;;;;;;5009473;28;20473;-73
2022/12/17 20:15:58;;;;;;;55.53;29.07;;;-8.00;99.90;;;;;;5003771;28;20560;-74
2022/12/17 20:18:23;;;;;;;63.63;26.20;;;-8.00;99.90;;;;;;5009063;28;20501;-74
2022/12/17 20:20:49;;;;;;;84.17;28.50;;;-8.00;99.90;;;;;;5008976;28;20473;-74
2022/12/17 20:23:14;;;;;;;68.97;27.80;;;-8.10;99.90;;;;;;5006993;28;20246;-74
2022/12/17 20:25:40;;;;;;;67.40;28.57;;;-8.20;99.90;;;;;;5009390;28;20971;-75
2022/12/17 20:28:05;;;;;;;58.53;25.90;;;-8.20;99.90;;;;;;5009390;28;20233;-74
2022/12/17 20:30:31;;;;;;;59.40;27.70;;;-8.10;99.90;;;;;;5008704;28;20203;-75
2022/12/17 20:32:56;;;;;;;62.77;27.33;;;-8.20;99.90;;;;;;5008056;28;20356;-75
2022/12/17 20:35:22;;;;;;;75.17;27.50;;;-8.20;99.90;;;;;;5008746;28;20313;-74
2022/12/17 20:37:47;;;;;;;68.30;29.60;;;-8.20;99.90;;;;;;4991775;28;20237;-75
2022/12/17 20:40:13;;;;;;;73.33;29.70;;;-8.20;99.90;;;;;;5008701;28;20253;-75
2022/12/17 20:42:38;;;;;;;64.53;28.20;;;-8.20;99.90;;;;;;4990789;28;20210;-75
2022/12/17 20:45:04;;;;;;;73.03;28.50;;;-8.20;99.90;;;;;;5008110;28;20222;-75
2022/12/17 20:47:30;;;;;;;66.40;28.07;;;-8.10;99.90;;;;;;5009330;28;20221;-76
2022/12/17 20:49:55;;;;;;;68.50;28.27;;;-8.10;99.90;;;;;;5008893;28;21022;-76
2022/12/17 20:52:21;;;;;;;60.73;28.30;;;-8.10;99.90;;;;;;5008294;28;20215;-74
2022/12/17 20:54:48;;;;;;;63.20;28.70;;;-8.10;99.90;;;;;;5008266;28;20750;-75
2022/12/17 20:57:13;;;;;;;74.03;30.73;;;-8.00;99.90;;;;;;5009285;28;20199;-75
2022/12/17 20:59:39;;;;;;;76.10;29.90;;;-8.00;99.90;;;;;;5008121;28;20960;-74
2022/12/17 21:02:04;;;;;;;79.33;30.20;;;-7.90;99.90;;;;;;4990842;28;20581;-75
2022/12/17 21:04:30;;;;;;;64.53;29.73;;;-7.90;99.90;;;;;;5011477;28;20223;-75
2022/12/17 21:06:55;;;;;;;68.20;32.83;;;-7.80;99.90;;;;;;5012512;28;20217;-76
2022/12/17 21:09:21;;;;;;;87.37;33.80;;;-7.80;99.90;;;;;;5010491;28;20262;-74
2022/12/17 21:11:47;;;;;;;85.13;41.87;;;-7.80;99.90;;;;;;5005672;28;20330;-75
2022/12/17 21:14:15;;;;;;;100.90;35.60;;;-7.70;99.90;;;;;;5000360;28;20258;-75
2022/12/17 21:16:42;;;;;;;91.30;37.20;;;-7.60;99.90;;;;;;5011827;28;20392;-74
2022/12/17 21:19:10;;;;;;;86.57;36.43;;;-7.50;99.90;;;;;;4996992;28;20396;-74
2022/12/17 21:21:37;;;;;;;81.77;34.67;;;-7.40;99.90;;;;;;4995946;28;20417;-75
2022/12/17 21:24:03;;;;;;;91.80;35.63;;;-7.30;99.90;;;;;;5007798;28;20430;-74
2022/12/17 21:26:34;;;;;;;84.10;30.87;;;-7.30;99.90;;;;;;5003140;28;20434;-74
2022/12/17 21:29:01;;;;;;;70.47;33.23;;;-7.40;99.90;;;;;;5009415;28;20421;-74
2022/12/17 21:31:33;;;;;;;86.23;35.10;;;-7.50;99.90;;;;;;5000997;28;20445;-73
2022/12/17 21:34:00;;;;;;;73.23;29.70;;;-7.40;99.90;;;;;;5001353;28;20513;-74
2022/12/17 21:36:27;;;;;;;76.00;33.20;;;-7.40;99.90;;;;;;5002461;28;20822;-74
2022/12/17 21:38:53;;;;;;;91.97;34.87;;;-7.50;99.90;;;;;;5007314;28;20772;-75
2022/12/17 21:41:28;;;;;;;90.37;36.43;;;-7.50;99.90;;;;;;5006368;28;20441;-74
2022/12/17 21:43:55;;;;;;;100.17;35.83;;;-7.40;99.90;;;;;;5005276;28;20892;-75
2022/12/17 21:46:21;;;;;;;77.20;32.97;;;-7.50;99.90;;;;;;5008443;28;20418;-74
2022/12/17 21:48:46;;;;;;;84.17;32.40;;;-7.50;99.90;;;;;;5004979;28;20418;-73
2022/12/17 21:51:12;;;;;;;70.53;33.13;;;-7.50;99.90;;;;;;5005107;28;20453;-75
2022/12/17 21:53:41;;;;;;;85.60;32.40;;;-7.60;99.90;;;;;;5005476;28;20218;-75
2022/12/17 21:56:17;;;;;;;70.13;29.10;;;-7.60;99.90;;;;;;5007770;28;20444;-73
2022/12/17 21:58:44;;;;;;;69.43;30.20;;;-7.50;99.90;;;;;;5007359;28;20457;-75
2022/12/17 22:01:23;;;;;;;68.90;29.00;;;-7.50;99.90;;;;;;5005836;28;20408;-74
2022/12/17 22:03:50;;;;;;;66.13;29.07;;;-7.40;99.90;;;;;;5004001;28;20412;-74
2022/12/17 22:06:18;;;;;;;69.87;28.63;;;-7.50;99.90;;;;;;5004793;28;20407;-75
2022/12/17 22:08:45;;;;;;;84.13;31.27;;;-7.60;99.90;;;;;;5006483;28;20398;-75
2022/12/17 22:11:12;;;;;;;70.30;30.50;;;-7.50;99.90;;;;;;5005726;28;20921;-75
2022/12/17 22:16:23;;;;;;;59.27;26.83;;;-7.70;99.90;;;;;;5004485;28;20456;-75
2022/12/17 22:18:49;;;;;;;62.70;28.10;;;-7.70;99.90;;;;;;5009952;28;20884;-74
2022/12/17 22:21:15;;;;;;;71.27;29.30;;;-7.80;99.90;;;;;;5001030;28;20416;-75
2022/12/17 22:23:41;;;;;;;61.57;29.10;;;-7.80;99.90;;;;;;5003241;28;20803;-75
2022/12/17 22:26:10;;;;;;;79.60;28.63;;;-7.90;99.90;;;;;;5010351;28;20190;-75
2022/12/17 22:28:36;;;;;;;58.33;25.03;;;-7.90;99.90;;;;;;5010420;28;20187;-75
2022/12/17 22:33:50;;;;;;;65.27;25.77;;;-8.00;99.90;;;;;;5010025;28;20445;-75
2022/12/17 22:36:16;;;;;;;59.63;26.13;;;-8.00;99.90;;;;;;5005787;28;20441;-75
2022/12/17 22:38:41;;;;;;;59.53;26.80;;;-8.10;99.90;;;;;;5006457;28;20443;-75
2022/12/17 22:41:07;;;;;;;54.83;25.97;;;-8.10;99.90;;;;;;5007944;28;20224;-73
2022/12/17 22:43:34;;;;;;;49.23;25.13;;;-8.20;99.90;;;;;;5009044;28;20182;-75
2022/12/17 22:46:03;;;;;;;64.20;27.13;;;-8.20;99.90;;;;;;5007470;28;20178;-74
2022/12/17 22:48:30;;;;;;;59.57;24.77;;;-8.20;99.90;;;;;;5004685;28;20415;-74
2022/12/17 22:50:57;;;;;;;75.90;26.77;;;-8.30;99.90;;;;;;5000360;28;20422;-74
2022/12/17 22:53:23;;;;;;;55.43;25.40;;;-8.40;99.90;;;;;;5009372;28;20385;-74
2022/12/17 22:55:49;;;;;;;67.17;26.20;;;-8.50;99.90;;;;;;5009024;28;20476;-74
2022/12/17 22:58:16;;;;;;;73.93;25.77;;;-8.50;99.90;;;;;;5009956;28;20413;-75
2022/12/17 23:00:44;;;;;;;62.67;26.10;;;-8.60;99.90;;;;;;4991079;28;20411;-75
2022/12/17 23:03:10;;;;;;;57.83;25.13;;;-8.60;99.90;;;;;;5003747;28;20512;-74
2022/12/17 23:05:35;;;;;;;52.70;24.63;;;-8.60;99.90;;;;;;5002593;28;20496;-75
2022/12/17 23:08:01;;;;;;;57.87;25.27;;;-8.60;99.90;;;;;;5002350;28;20698;-74
2022/12/17 23:10:27;;;;;;;50.10;25.30;;;-8.70;99.90;;;;;;5004702;28;20191;-74
2022/12/17 23:12:54;;;;;;;51.90;23.53;;;-8.70;99.90;;;;;;4999727;28;20203;-74
2022/12/17 23:15:35;;;;;;;59.97;24.20;;;-8.80;99.90;;;;;;5004086;28;20431;-74
2022/12/17 23:18:02;;;;;;;73.37;27.37;;;-8.80;99.90;;;;;;5010468;28;20372;-74
2022/12/17 23:20:30;;;;;;;60.93;25.97;;;-8.80;99.90;;;;;;5010386;28;20416;-74
2022/12/17 23:22:55;;;;;;;58.37;25.00;;;-8.80;99.90;;;;;;5009986;28;20842;-75
2022/12/17 23:25:22;;;;;;;58.57;23.90;;;-8.80;99.90;;;;;;4991287;28;20489;-75
2022/12/17 23:27:49;;;;;;;71.27;24.00;;;-8.90;99.90;;;;;;4987957;28;20632;-74
2022/12/17 23:30:15;;;;;;;59.37;25.93;;;-8.90;99.90;;;;;;5002743;28;20464;-75
2022/12/17 23:32:41;;;;;;;55.73;23.20;;;-8.90;99.90;;;;;;5009485;28;20483;-74
2022/12/17 23:35:07;;;;;;;61.80;24.80;;;-9.00;99.90;;;;;;5002527;28;20451;-73
2022/12/17 23:37:33;;;;;;;61.00;24.30;;;-9.10;99.90;;;;;;5007474;28;20381;-74
2022/12/17 23:39:58;;;;;;;65.63;24.67;;;-9.10;99.90;;;;;;5003989;28;20179;-74
2022/12/17 23:42:24;;;;;;;70.07;24.77;;;-9.10;99.90;;;;;;5002920;28;20290;-75
2022/12/17 23:44:50;;;;;;;52.80;23.90;;;-9.20;99.90;;;;;;5003172;28;20205;-74
2022/12/17 23:47:16;;;;;;;60.67;24.40;;;-9.20;99.90;;;;;;5001621;28;20215;-76
2022/12/17 23:49:42;;;;;;;43.37;21.70;;;-9.20;99.90;;;;;;5001625;28;20521;-73
2022/12/17 23:52:07;;;;;;;56.80;21.53;;;-9.30;99.90;;;;;;4998293;28;20721;-72
2022/12/17 23:54:33;;;;;;;68.80;24.47;;;-9.30;99.90;;;;;;4999739;28;20574;-74
2022/12/17 23:56:59;;;;;;;48.67;21.67;;;-9.30;99.90;;;;;;5002242;28;20266;-73
2022/12/17 23:59:24;;;;;;;56.60;24.57;;;-9.30;99.90;;;;;;4999558;28;20262;-74
